< < Back
Terminal Aerodrome Forecast


Current Version              Previous Versions:   1  2  3  4  5  6  7  8  9  

Terminal Aerodrome Forecast

682
FTUS42 KTAE 302118 AAA
TAFVLD
TAF AMD
KVLD 302118Z 3021/3118 19005KT P6SM VCTS BKN040CB
      TEMPO 3021/3024 VRB15G25KT 1SM +TSRA
     FM310200 00000KT P6SM BKN250=



Latest METAR

185
SAUS70 KWBC 302300 RRB
MTRVLD
METAR KVLD 302253Z 00000KT 10SM SCT060 BKN085 27/25 A2992 RMK AO2 RAE33
SLP137 P0002 T02670250


USA.gov is the U.S. government's official web portal to all federal, state and local government web resources and services.